Time;durP1;ratioP1;P1;durP2;ratioP2;P2;SDS_P1;SDS_P2;PMS_P1;PMS_P2;Temp;Humidity;BMP_temperature;BMP_pressure;BME280_temperature;BME280_humidity;BME280_pressure;Samples;Min_cycle;Max_cycle;Signal;HPM_P1;HPM_P2
2023/04/13 00:02:02;;;;;;;3.17;1.02;;;7.90;99.90;;;;;;5058038;28;20064;-63
2023/04/13 00:04:30;;;;;;;4.13;1.10;;;7.80;99.90;;;;;;5053674;28;20044;-64
2023/04/13 00:06:57;;;;;;;4.25;1.20;;;7.80;99.90;;;;;;5051382;28;20143;-63
2023/04/13 00:09:24;;;;;;;3.13;1.10;;;7.80;99.90;;;;;;5053489;28;20062;-63
2023/04/13 00:11:50;;;;;;;3.70;1.30;;;7.80;99.90;;;;;;5053060;28;20067;-63
2023/04/13 00:14:17;;;;;;;3.53;1.20;;;7.70;99.90;;;;;;5061433;28;20114;-63
2023/04/13 00:16:45;;;;;;;2.75;1.30;;;7.60;99.90;;;;;;5061251;28;20234;-63
2023/04/13 00:19:11;;;;;;;2.63;1.02;;;7.60;99.90;;;;;;5052902;28;20110;-63
2023/04/13 00:21:40;;;;;;;2.22;1.23;;;7.60;99.90;;;;;;5063597;28;20361;-63
2023/04/13 00:24:06;;;;;;;4.95;1.20;;;7.60;99.90;;;;;;5062180;28;20041;-63
2023/04/13 00:26:32;;;;;;;2.15;1.08;;;7.60;99.90;;;;;;5060442;28;20408;-64
2023/04/13 00:28:58;;;;;;;2.65;0.98;;;7.50;99.90;;;;;;5063328;28;20037;-64
2023/04/13 00:31:23;;;;;;;2.85;1.20;;;7.50;99.90;;;;;;5058545;28;20042;-64
2023/04/13 00:33:49;;;;;;;3.88;1.25;;;7.60;99.90;;;;;;5063107;28;20041;-63
2023/04/13 00:36:15;;;;;;;4.53;1.52;;;7.50;99.90;;;;;;5065508;28;20505;-64
2023/04/13 00:38:43;;;;;;;3.83;1.40;;;7.50;99.90;;;;;;5068359;28;20167;-63
2023/04/13 00:41:11;;;;;;;2.63;1.00;;;7.50;99.90;;;;;;5063593;28;20045;-64
2023/04/13 00:43:37;;;;;;;2.15;0.90;;;7.40;99.90;;;;;;5066378;28;20044;-63
2023/04/13 00:46:04;;;;;;;2.55;0.80;;;7.40;99.90;;;;;;5055821;28;20120;-63
2023/04/13 00:48:30;;;;;;;1.98;0.95;;;7.40;99.90;;;;;;5055564;28;20048;-64
2023/04/13 00:50:55;;;;;;;3.70;1.10;;;7.40;99.90;;;;;;5058311;28;20464;-64
2023/04/13 00:53:22;;;;;;;2.78;1.00;;;7.40;99.90;;;;;;5052348;28;20467;-63
2023/04/13 00:55:48;;;;;;;1.92;0.80;;;7.40;99.90;;;;;;5065924;28;20476;-64
2023/04/13 00:58:14;;;;;;;3.67;1.00;;;7.40;99.90;;;;;;5054461;28;20044;-63
2023/04/13 01:00:41;;;;;;;2.75;1.10;;;7.40;99.90;;;;;;5060941;28;20047;-63
2023/04/13 01:03:08;;;;;;;3.50;1.55;;;7.40;99.90;;;;;;5053526;28;20048;-63
2023/04/13 01:06:10;;;;;;;4.30;1.25;;;7.40;99.90;;;;;;5060878;28;20048;-63
2023/04/13 01:08:54;;;;;;;4.07;1.33;;;7.40;99.90;;;;;;5058465;28;20041;-63
2023/04/13 01:11:31;;;;;;;2.55;1.10;;;7.40;99.90;;;;;;5063459;28;20036;-63
2023/04/13 01:14:13;;;;;;;3.00;1.20;;;7.40;99.90;;;;;;5056612;28;20041;-64
2023/04/13 01:16:45;;;;;;;4.57;1.23;;;7.40;99.90;;;;;;5057426;28;20436;-64
2023/04/13 01:19:32;;;;;;;3.83;1.00;;;7.40;99.90;;;;;;5068405;28;20051;-63
2023/04/13 01:22:00;;;;;;;4.50;1.30;;;7.40;99.90;;;;;;5057468;28;20114;-63
2023/04/13 01:24:37;;;;;;;4.00;1.15;;;7.30;99.90;;;;;;5061671;28;20053;-63
2023/04/13 01:27:10;;;;;;;3.63;1.15;;;7.30;99.90;;;;;;5058576;28;20098;-63
2023/04/13 01:29:37;;;;;;;3.45;1.10;;;7.30;99.90;;;;;;5061567;28;20045;-63
2023/04/13 01:32:04;;;;;;;2.75;0.90;;;7.30;99.90;;;;;;5053958;28;20083;-63
2023/04/13 01:34:30;;;;;;;4.28;1.10;;;7.30;99.90;;;;;;5061334;28;20161;-63
2023/04/13 01:36:56;;;;;;;4.20;1.50;;;7.30;99.90;;;;;;5056278;28;20040;-63
2023/04/13 01:39:24;;;;;;;4.75;1.13;;;7.30;99.90;;;;;;5062270;28;20131;-64
2023/04/13 01:41:50;;;;;;;3.13;1.20;;;7.30;99.90;;;;;;5058063;28;20059;-63
2023/04/13 01:44:16;;;;;;;6.03;1.20;;;7.30;99.90;;;;;;5050479;28;20389;-64
2023/04/13 01:46:45;;;;;;;4.28;1.23;;;7.30;99.90;;;;;;5051754;28;20063;-64
2023/04/13 01:49:15;;;;;;;3.78;1.23;;;7.30;99.90;;;;;;5051173;28;20737;-63
2023/04/13 01:51:42;;;;;;;3.80;1.15;;;7.30;99.90;;;;;;5054248;28;20041;-63
2023/04/13 01:54:12;;;;;;;2.67;1.05;;;7.40;99.90;;;;;;5055297;28;20040;-63
2023/04/13 01:56:41;;;;;;;6.22;1.50;;;7.40;99.90;;;;;;5053233;28;20392;-64
2023/04/13 01:59:07;;;;;;;4.88;1.30;;;7.30;99.90;;;;;;5053672;28;20041;-64
2023/04/13 02:01:33;;;;;;;6.07;1.23;;;7.30;99.90;;;;;;5052949;28;20037;-63
2023/04/13 02:04:00;;;;;;;4.75;1.27;;;7.30;99.90;;;;;;5053787;28;20492;-63
2023/04/13 02:06:25;;;;;;;3.83;1.10;;;7.30;99.90;;;;;;5049056;28;20045;-63
2023/04/13 02:08:52;;;;;;;2.65;1.00;;;7.30;99.90;;;;;;5054992;28;20029;-63
2023/04/13 02:11:18;;;;;;;4.15;1.20;;;7.30;99.90;;;;;;5053391;28;20037;-63
2023/04/13 02:13:44;;;;;;;2.70;1.23;;;7.30;99.90;;;;;;5053707;28;20062;-63
2023/04/13 02:16:09;;;;;;;2.45;1.13;;;7.30;99.90;;;;;;5055012;28;20036;-63
2023/04/13 02:18:35;;;;;;;3.70;1.20;;;7.30;99.90;;;;;;5051038;28;20119;-63
2023/04/13 02:21:08;;;;;;;3.58;1.40;;;7.30;99.90;;;;;;5053818;28;20171;-63
2023/04/13 02:23:39;;;;;;;3.58;1.20;;;7.30;99.90;;;;;;5051480;28;20059;-63
2023/04/13 02:26:12;;;;;;;2.60;1.20;;;7.30;99.90;;;;;;5051830;28;20044;-63
2023/04/13 02:28:39;;;;;;;4.45;1.65;;;7.30;99.90;;;;;;5052929;28;20041;-63
2023/04/13 02:31:05;;;;;;;2.50;1.27;;;7.30;99.90;;;;;;5054107;28;20048;-64
2023/04/13 02:33:31;;;;;;;3.92;1.55;;;7.30;99.90;;;;;;5055017;28;20065;-64
2023/04/13 02:36:02;;;;;;;3.92;1.65;;;7.20;99.90;;;;;;5052104;28;20093;-64
2023/04/13 02:38:28;;;;;;;3.15;1.20;;;7.30;99.90;;;;;;5050834;28;20081;-63
2023/04/13 02:40:55;;;;;;;4.30;1.63;;;7.20;99.90;;;;;;5050568;28;20041;-63
2023/04/13 02:43:20;;;;;;;3.58;1.38;;;7.20;99.90;;;;;;5051400;28;20068;-63
2023/04/13 02:45:46;;;;;;;3.63;1.13;;;7.20;99.90;;;;;;5052930;28;21933;-63
2023/04/13 02:48:11;;;;;;;3.63;1.20;;;7.20;99.90;;;;;;5051323;28;20138;-63
2023/04/13 02:50:37;;;;;;;4.22;1.50;;;7.20;99.90;;;;;;5054962;28;20041;-63
2023/04/13 02:53:03;;;;;;;3.40;1.20;;;7.20;99.90;;;;;;5054772;28;20139;-63
2023/04/13 02:55:28;;;;;;;3.22;1.33;;;7.20;99.90;;;;;;5056286;28;20556;-63
2023/04/13 02:57:54;;;;;;;3.78;1.30;;;7.20;99.90;;;;;;5064646;28;20032;-63
2023/04/13 03:00:20;;;;;;;3.50;1.60;;;7.20;99.90;;;;;;5059060;28;20063;-63
2023/04/13 03:02:46;;;;;;;3.13;1.23;;;7.30;99.90;;;;;;5058438;28;20048;-63
2023/04/13 03:05:12;;;;;;;4.20;1.40;;;7.20;99.90;;;;;;5053461;28;20037;-63
2023/04/13 03:07:38;;;;;;;3.45;1.17;;;7.20;99.90;;;;;;5059584;28;20191;-63
2023/04/13 03:10:04;;;;;;;3.50;1.27;;;7.20;99.90;;;;;;5060371;28;20119;-63
2023/04/13 03:12:33;;;;;;;3.50;1.40;;;7.20;99.90;;;;;;5073359;28;20062;-63
2023/04/13 03:15:01;;;;;;;4.10;1.42;;;7.20;99.90;;;;;;5068768;28;20483;-63
2023/04/13 03:17:30;;;;;;;3.60;1.50;;;7.20;99.90;;;;;;5053727;28;20138;-63
2023/04/13 03:19:58;;;;;;;5.20;1.50;;;7.10;99.90;;;;;;5059240;28;20044;-63
2023/04/13 03:22:24;;;;;;;4.72;1.50;;;7.10;99.90;;;;;;5061256;28;20045;-63
2023/04/13 03:24:51;;;;;;;5.20;1.40;;;7.10;99.90;;;;;;5085106;28;20068;-63
2023/04/13 03:27:17;;;;;;;5.05;1.40;;;7.10;99.90;;;;;;5092242;28;20082;-63
2023/04/13 03:29:43;;;;;;;4.43;1.40;;;7.10;99.90;;;;;;5056313;28;20411;-63
2023/04/13 03:32:08;;;;;;;4.15;1.40;;;7.10;99.90;;;;;;5053064;28;20133;-63
2023/04/13 03:34:34;;;;;;;2.88;1.33;;;7.10;99.90;;;;;;5053175;28;20069;-63
2023/04/13 03:37:00;;;;;;;3.88;1.40;;;7.10;99.90;;;;;;5053327;28;20122;-63
2023/04/13 03:39:26;;;;;;;3.53;1.40;;;7.10;99.90;;;;;;5059639;28;20053;-63
2023/04/13 03:41:51;;;;;;;2.50;1.17;;;7.10;99.90;;;;;;5069464;28;20044;-63
2023/04/13 03:44:17;;;;;;;4.28;1.52;;;7.10;99.90;;;;;;5055875;28;20040;-63
2023/04/13 03:46:43;;;;;;;3.75;1.50;;;7.10;99.90;;;;;;5051924;28;20565;-63
2023/04/13 03:49:09;;;;;;;3.60;1.60;;;7.10;99.90;;;;;;5056130;28;20119;-63
2023/04/13 03:51:36;;;;;;;4.20;1.70;;;7.10;99.90;;;;;;5053340;28;20065;-63
2023/04/13 03:54:02;;;;;;;3.58;1.63;;;7.10;99.90;;;;;;5059851;28;20056;-63
2023/04/13 03:56:29;;;;;;;3.30;1.70;;;7.10;99.90;;;;;;5060219;28;20131;-63
2023/04/13 03:58:55;;;;;;;4.03;1.80;;;7.10;99.90;;;;;;5055693;28;20381;-64
2023/04/13 04:01:22;;;;;;;3.50;1.90;;;7.10;99.90;;;;;;5059184;28;20044;-64
2023/04/13 04:03:47;;;;;;;4.32;2.10;;;7.10;99.90;;;;;;5053445;28;20480;-63
2023/04/13 04:06:13;;;;;;;3.83;1.75;;;7.10;99.90;;;;;;5055987;28;20068;-63
2023/04/13 04:08:39;;;;;;;4.10;2.20;;;7.10;99.90;;;;;;5054754;28;20029;-63
2023/04/13 04:11:05;;;;;;;4.43;2.10;;;7.10;99.90;;;;;;5053647;28;20051;-63
2023/04/13 04:13:30;;;;;;;4.78;2.35;;;7.10;99.90;;;;;;5052557;28;20128;-63
2023/04/13 04:15:57;;;;;;;5.70;2.60;;;7.00;99.90;;;;;;5056303;28;20187;-63
2023/04/13 04:18:23;;;;;;;5.35;2.25;;;7.00;99.90;;;;;;5053642;28;20507;-64
2023/04/13 04:20:49;;;;;;;4.53;2.42;;;6.90;99.90;;;;;;5053816;28;20606;-64
2023/04/13 04:23:14;;;;;;;7.28;2.88;;;6.90;99.90;;;;;;5058179;28;20048;-63
2023/04/13 04:25:40;;;;;;;4.03;2.40;;;6.90;99.90;;;;;;5051444;28;20041;-63
2023/04/13 04:28:06;;;;;;;6.30;2.60;;;6.90;99.90;;;;;;5053488;28;20047;-63
2023/04/13 04:30:33;;;;;;;4.53;2.35;;;6.80;99.90;;;;;;5060072;28;20566;-63
2023/04/13 04:33:01;;;;;;;6.10;2.70;;;6.80;99.90;;;;;;5057006;28;20044;-63
2023/04/13 04:35:32;;;;;;;5.38;2.40;;;6.80;99.90;;;;;;5053093;28;20041;-63
2023/04/13 04:38:03;;;;;;;5.38;2.65;;;6.80;99.90;;;;;;5056527;28;20121;-63
2023/04/13 04:40:29;;;;;;;5.05;2.65;;;6.70;99.90;;;;;;5063054;28;20051;-63
2023/04/13 04:42:56;;;;;;;5.78;2.90;;;6.70;99.90;;;;;;5065115;28;20093;-63
2023/04/13 04:45:22;;;;;;;5.82;3.10;;;6.60;99.90;;;;;;5060622;28;20051;-64
2023/04/13 04:47:49;;;;;;;6.60;2.72;;;6.60;99.90;;;;;;5069062;28;20037;-63
2023/04/13 04:50:16;;;;;;;5.63;2.80;;;6.60;99.90;;;;;;5062642;28;20063;-63
2023/04/13 04:52:42;;;;;;;5.82;2.97;;;6.50;99.90;;;;;;5058030;28;20492;-64
2023/04/13 04:55:08;;;;;;;6.20;2.83;;;6.50;99.90;;;;;;5057817;28;20051;-64
2023/04/13 04:57:34;;;;;;;7.38;3.25;;;6.50;99.90;;;;;;5058086;28;20115;-64
2023/04/13 05:00:01;;;;;;;7.65;3.20;;;6.50;99.90;;;;;;5061920;28;20185;-64
2023/04/13 05:02:27;;;;;;;6.78;3.20;;;6.50;99.90;;;;;;5062263;28;20047;-64
2023/04/13 05:04:54;;;;;;;5.80;2.92;;;6.60;99.90;;;;;;5052215;28;20132;-63
2023/04/13 05:07:21;;;;;;;6.93;3.40;;;6.50;99.90;;;;;;5062133;28;20068;-64
2023/04/13 05:09:48;;;;;;;7.35;3.05;;;6.60;99.90;;;;;;5067708;28;20047;-64
2023/04/13 05:12:15;;;;;;;7.75;3.03;;;6.60;99.90;;;;;;5061324;28;20066;-63
2023/04/13 05:14:40;;;;;;;7.05;3.20;;;6.60;99.90;;;;;;5071057;28;20072;-63
2023/04/13 05:17:06;;;;;;;6.85;3.47;;;6.60;99.90;;;;;;5060020;28;20076;-63
2023/04/13 05:19:33;;;;;;;7.60;3.42;;;7.00;99.90;;;;;;5068597;28;20079;-63
2023/04/13 05:21:59;;;;;;;5.38;2.75;;;7.70;99.90;;;;;;5070014;28;20074;-63
2023/04/13 05:24:26;;;;;;;5.32;2.50;;;8.30;99.90;;;;;;5059582;28;20435;-64
2023/04/13 05:26:51;;;;;;;4.63;2.45;;;8.70;99.90;;;;;;5067838;28;20123;-64
2023/04/13 05:29:17;;;;;;;6.70;2.72;;;8.40;99.90;;;;;;5062683;28;20135;-64
2023/04/13 05:31:43;;;;;;;6.93;2.67;;;8.10;99.90;;;;;;5069149;28;20106;-63
2023/04/13 05:34:08;;;;;;;5.45;2.60;;;7.90;99.90;;;;;;5066667;28;20055;-64
2023/04/13 05:36:34;;;;;;;7.72;2.63;;;7.70;99.90;;;;;;5064423;28;20044;-64
2023/04/13 05:39:02;;;;;;;5.47;2.38;;;7.60;99.90;;;;;;5069256;28;20055;-64
2023/04/13 05:41:28;;;;;;;7.85;2.97;;;7.50;99.90;;;;;;5052667;28;20087;-63
2023/04/13 05:43:53;;;;;;;7.07;2.88;;;7.50;99.90;;;;;;5064120;28;20064;-65
2023/04/13 05:46:20;;;;;;;6.28;2.80;;;7.50;99.90;;;;;;5080403;28;20045;-64
2023/04/13 05:48:45;;;;;;;7.90;3.22;;;7.50;99.90;;;;;;5070399;28;20040;-64
2023/04/13 05:51:15;;;;;;;7.63;3.30;;;7.50;99.90;;;;;;5062213;28;20037;-64
2023/04/13 05:53:40;;;;;;;7.15;2.80;;;7.50;99.90;;;;;;5065379;28;20407;-64
2023/04/13 05:56:06;;;;;;;10.55;3.30;;;7.60;99.90;;;;;;5067154;28;20049;-63
2023/04/13 05:58:33;;;;;;;8.75;3.50;;;7.50;99.90;;;;;;5070470;28;20076;-64
2023/04/13 06:01:00;;;;;;;8.50;3.33;;;7.40;99.90;;;;;;5059466;28;20114;-63
2023/04/13 06:03:28;;;;;;;7.55;2.78;;;7.50;99.90;;;;;;5068358;28;20359;-64
2023/04/13 06:05:54;;;;;;;7.68;3.05;;;7.40;99.90;;;;;;5059442;28;20052;-63
2023/04/13 06:08:20;;;;;;;9.02;3.55;;;7.50;99.90;;;;;;5048958;28;20086;-63
2023/04/13 06:10:47;;;;;;;6.13;2.85;;;7.50;99.90;;;;;;5052801;28;20057;-64
2023/04/13 06:13:13;;;;;;;11.00;3.00;;;7.50;99.90;;;;;;5066906;28;20059;-64
2023/04/13 06:15:39;;;;;;;7.30;2.78;;;7.50;99.90;;;;;;5063085;28;20115;-64
2023/04/13 06:18:05;;;;;;;8.40;3.08;;;7.60;99.90;;;;;;5062824;28;20159;-64
2023/04/13 06:20:32;;;;;;;7.88;2.67;;;7.80;99.90;;;;;;5048358;28;20041;-64
2023/04/13 06:22:58;;;;;;;8.80;2.72;;;8.00;99.90;;;;;;5055423;28;20172;-64
2023/04/13 06:25:24;;;;;;;6.75;2.55;;;8.10;99.90;;;;;;5067230;28;20087;-64
2023/04/13 06:27:50;;;;;;;5.97;2.60;;;8.10;99.90;;;;;;5057870;28;20064;-63
2023/04/13 06:30:15;;;;;;;6.00;2.70;;;8.10;99.90;;;;;;5067990;28;20033;-64
2023/04/13 06:32:41;;;;;;;7.78;2.80;;;8.10;99.90;;;;;;5068450;28;20037;-64
2023/04/13 06:35:07;;;;;;;8.80;2.70;;;8.10;99.90;;;;;;5069803;28;20037;-65
2023/04/13 06:37:34;;;;;;;8.25;2.80;;;8.10;99.90;;;;;;5061069;28;20051;-64
2023/04/13 06:40:11;;;;;;;8.75;3.10;;;8.00;99.90;;;;;;5064622;28;20044;-64
2023/04/13 06:42:40;;;;;;;7.97;2.90;;;8.00;99.90;;;;;;5050433;28;20048;-64
2023/04/13 06:45:07;;;;;;;8.25;2.55;;;8.10;99.90;;;;;;5058211;28;20469;-64
2023/04/13 06:47:33;;;;;;;7.93;2.55;;;8.10;99.90;;;;;;5056863;28;20055;-64
2023/04/13 06:50:05;;;;;;;9.75;3.03;;;8.10;99.90;;;;;;5070235;28;20048;-64
2023/04/13 06:52:35;;;;;;;7.13;2.67;;;8.00;99.90;;;;;;5066216;28;20051;-64
2023/04/13 06:55:01;;;;;;;7.55;2.55;;;8.10;99.90;;;;;;5067098;28;20084;-65
2023/04/13 06:57:27;;;;;;;9.55;2.95;;;8.00;99.90;;;;;;5070311;28;20076;-64
2023/04/13 06:59:53;;;;;;;6.82;2.55;;;8.00;99.90;;;;;;5069505;28;20831;-64
2023/04/13 07:02:18;;;;;;;7.63;2.20;;;8.00;99.90;;;;;;5067623;28;20040;-64
2023/04/13 07:04:44;;;;;;;8.52;2.20;;;8.10;99.90;;;;;;5068764;28;20032;-64
2023/04/13 07:07:10;;;;;;;8.10;2.28;;;8.20;99.90;;;;;;5069864;28;20041;-64
2023/04/13 07:09:36;;;;;;;8.68;2.35;;;8.30;99.90;;;;;;5055290;28;20053;-64
2023/04/13 07:12:03;;;;;;;9.52;2.50;;;8.30;99.90;;;;;;5047901;28;20079;-64
2023/04/13 07:14:37;;;;;;;8.30;2.35;;;8.40;99.90;;;;;;5054758;28;20048;-64
2023/04/13 07:17:03;;;;;;;8.60;2.40;;;8.40;99.90;;;;;;5067800;28;20052;-64
2023/04/13 07:19:30;;;;;;;8.43;2.38;;;8.40;99.90;;;;;;5069051;28;20040;-64
2023/04/13 07:21:57;;;;;;;8.60;2.63;;;8.40;99.90;;;;;;5060370;28;20559;-64
2023/04/13 07:24:22;;;;;;;6.05;1.88;;;8.40;99.90;;;;;;5065018;28;20045;-64
2023/04/13 07:26:48;;;;;;;7.18;2.47;;;8.40;99.90;;;;;;5065430;28;20045;-64
2023/04/13 07:29:17;;;;;;;7.70;2.00;;;8.40;99.90;;;;;;5062083;28;20201;-64
2023/04/13 07:31:42;;;;;;;5.28;1.80;;;8.50;99.90;;;;;;5068236;28;20135;-64
2023/04/13 07:34:08;;;;;;;5.82;2.10;;;8.50;99.90;;;;;;5066882;28;20419;-64
2023/04/13 07:36:34;;;;;;;5.47;1.85;;;8.60;99.90;;;;;;5068865;28;20067;-64
2023/04/13 07:39:00;;;;;;;9.50;2.40;;;8.80;99.90;;;;;;5065708;28;20579;-64
2023/04/13 07:41:26;;;;;;;7.47;2.25;;;9.00;99.90;;;;;;5069449;28;20092;-64
2023/04/13 07:43:51;;;;;;;5.28;1.83;;;9.00;99.90;;;;;;5067873;28;20128;-64
2023/04/13 07:46:19;;;;;;;8.88;1.95;;;9.20;99.90;;;;;;5065358;28;20064;-64
2023/04/13 07:48:44;;;;;;;5.75;1.48;;;9.20;99.90;;;;;;5055896;28;20052;-64
2023/04/13 07:51:17;;;;;;;4.50;1.85;;;9.30;99.90;;;;;;5051748;28;20308;-64
2023/04/13 07:53:43;;;;;;;5.28;1.65;;;9.30;99.90;;;;;;5067951;28;20065;-64
2023/04/13 07:56:09;;;;;;;5.55;1.48;;;9.30;99.90;;;;;;5064836;28;20388;-64
2023/04/13 07:58:34;;;;;;;5.68;1.65;;;9.30;99.90;;;;;;5068121;28;20335;-64
2023/04/13 08:01:00;;;;;;;4.10;1.40;;;9.30;99.90;;;;;;5068063;28;20044;-65
2023/04/13 08:03:30;;;;;;;5.35;1.30;;;9.40;99.90;;;;;;5049842;28;20041;-65
2023/04/13 08:05:55;;;;;;;4.82;1.27;;;9.50;99.90;;;;;;5061787;28;20037;-64
2023/04/13 08:08:21;;;;;;;5.60;1.13;;;9.50;99.90;;;;;;5064736;28;20036;-65
2023/04/13 08:10:47;;;;;;;6.75;1.83;;;9.50;99.90;;;;;;5065656;28;20047;-64
2023/04/13 08:13:14;;;;;;;4.95;1.63;;;9.50;99.90;;;;;;5068386;28;20053;-64
2023/04/13 08:15:40;;;;;;;3.72;1.50;;;9.50;99.90;;;;;;5063825;28;20066;-64
2023/04/13 08:18:06;;;;;;;6.05;1.70;;;9.40;99.90;;;;;;5064816;28;20540;-64
2023/04/13 08:20:32;;;;;;;6.45;1.52;;;9.50;99.90;;;;;;5068293;28;20033;-64
2023/04/13 08:22:59;;;;;;;5.38;1.80;;;9.70;99.90;;;;;;5061109;28;20029;-64
2023/04/13 08:25:25;;;;;;;3.78;1.58;;;9.80;99.90;;;;;;5061020;28;20127;-64
2023/04/13 08:27:51;;;;;;;6.55;1.50;;;9.80;99.90;;;;;;5065566;28;20040;-64
2023/04/13 08:30:17;;;;;;;4.22;1.45;;;9.70;99.90;;;;;;5065193;28;20072;-64
2023/04/13 08:32:42;;;;;;;5.55;1.70;;;9.70;99.90;;;;;;5067560;28;20102;-65
2023/04/13 08:35:09;;;;;;;7.68;1.85;;;9.60;99.90;;;;;;5056618;28;20057;-64
2023/04/13 08:37:35;;;;;;;4.75;1.50;;;9.60;99.90;;;;;;5057106;28;20053;-64
2023/04/13 08:40:06;;;;;;;6.03;1.25;;;9.60;99.90;;;;;;5062265;28;20109;-64
2023/04/13 08:42:33;;;;;;;4.63;1.25;;;9.50;99.90;;;;;;5060939;28;20058;-65
2023/04/13 08:44:59;;;;;;;3.50;1.30;;;9.60;99.90;;;;;;5057238;28;20039;-64
2023/04/13 08:47:26;;;;;;;6.40;1.55;;;9.70;99.90;;;;;;5067897;28;20060;-65
2023/04/13 08:49:58;;;;;;;5.50;1.60;;;9.80;99.90;;;;;;5059268;28;20127;-64
2023/04/13 08:52:25;;;;;;;5.07;1.55;;;10.00;99.90;;;;;;5064378;28;20467;-65
2023/04/13 08:54:54;;;;;;;5.53;1.38;;;10.20;99.90;;;;;;5067566;28;20048;-64
2023/04/13 08:57:21;;;;;;;4.80;1.23;;;10.30;99.90;;;;;;5059258;28;20120;-65
2023/04/13 08:59:53;;;;;;;4.88;1.35;;;10.30;99.90;;;;;;5062520;28;20533;-65
2023/04/13 09:02:23;;;;;;;5.53;1.27;;;10.30;99.90;;;;;;5066683;28;20044;-64
2023/04/13 09:04:51;;;;;;;4.82;1.40;;;10.10;99.90;;;;;;5066146;28;20352;-64
2023/04/13 09:07:25;;;;;;;7.25;1.83;;;9.90;99.90;;;;;;5065616;28;20399;-64
2023/04/13 09:09:54;;;;;;;3.88;0.88;;;9.60;99.90;;;;;;5062061;28;20075;-64
2023/04/13 09:12:19;;;;;;;4.38;0.95;;;9.30;99.90;;;;;;5067203;28;20076;-64
2023/04/13 09:14:45;;;;;;;4.28;1.00;;;9.10;99.90;;;;;;5067358;28;20091;-64
2023/04/13 09:17:33;;;;;;;3.72;0.85;;;9.00;99.90;;;;;;5061320;28;20048;-64
2023/04/13 09:20:16;;;;;;;2.17;0.82;;;8.90;99.90;;;;;;5066539;28;20048;-64
2023/04/13 09:22:42;;;;;;;2.92;0.90;;;8.80;99.90;;;;;;5047267;28;20055;-65
2023/04/13 09:25:22;;;;;;;3.75;0.80;;;8.60;99.90;;;;;;5062812;28;20052;-64
2023/04/13 09:27:48;;;;;;;4.60;1.27;;;8.70;99.90;;;;;;5065142;28;20094;-64
2023/04/13 09:30:17;;;;;;;4.53;0.80;;;8.80;99.90;;;;;;5061641;28;20041;-64
2023/04/13 09:32:43;;;;;;;4.50;1.00;;;9.00;99.90;;;;;;5047774;28;20111;-65
2023/04/13 09:35:08;;;;;;;4.38;1.30;;;9.20;99.90;;;;;;5053175;28;20048;-65
2023/04/13 09:37:35;;;;;;;3.58;0.95;;;9.40;99.90;;;;;;5060575;28;20048;-65
2023/04/13 09:40:11;;;;;;;4.05;1.40;;;9.70;99.90;;;;;;5064293;28;20488;-64
2023/04/13 09:42:52;;;;;;;7.13;1.40;;;9.90;99.90;;;;;;5066122;28;20032;-64
2023/04/13 09:45:18;;;;;;;6.97;1.88;;;10.10;99.90;;;;;;5067650;28;20056;-65
2023/04/13 09:47:44;;;;;;;6.82;1.30;;;10.40;99.90;;;;;;5063773;28;20036;-65
2023/04/13 09:50:26;;;;;;;6.95;2.08;;;10.60;99.90;;;;;;5060452;28;20084;-65
2023/04/13 09:53:03;;;;;;;8.95;1.70;;;10.90;99.90;;;;;;5052467;28;20044;-65
2023/04/13 09:55:35;;;;;;;6.93;1.70;;;10.90;99.90;;;;;;5056703;28;20037;-65
2023/04/13 09:58:16;;;;;;;5.93;1.30;;;10.80;99.90;;;;;;5056823;28;20033;-64
2023/04/13 10:00:45;;;;;;;6.43;1.20;;;10.50;99.90;;;;;;5066668;28;20051;-65
2023/04/13 10:03:12;;;;;;;4.97;1.20;;;10.50;99.90;;;;;;5066383;28;20040;-64
2023/04/13 10:05:39;;;;;;;6.85;1.40;;;10.40;99.90;;;;;;5052990;28;20041;-63
2023/04/13 10:08:05;;;;;;;7.78;1.40;;;10.40;99.90;;;;;;5050161;28;20361;-64
2023/04/13 10:10:32;;;;;;;8.35;1.85;;;10.30;99.90;;;;;;5057660;28;20108;-64
2023/04/13 10:13:01;;;;;;;6.85;1.48;;;10.50;99.90;;;;;;5058921;28;20037;-65
2023/04/13 10:15:38;;;;;;;10.52;2.05;;;10.60;99.90;;;;;;5068901;28;20044;-64
2023/04/13 10:18:13;;;;;;;11.38;2.05;;;10.50;99.90;;;;;;5069298;28;20040;-65
2023/04/13 10:20:40;;;;;;;8.10;1.70;;;10.60;99.90;;;;;;5061659;28;20055;-68
2023/04/13 10:23:06;;;;;;;10.10;2.17;;;10.80;99.90;;;;;;5060986;28;20036;-66
2023/04/13 10:25:32;;;;;;;9.65;2.10;;;10.80;99.90;;;;;;5064344;28;20066;-65
2023/04/13 10:27:58;;;;;;;10.35;2.17;;;11.00;99.90;;;;;;5069288;28;20044;-65
2023/04/13 10:30:25;;;;;;;8.43;1.90;;;11.00;99.90;;;;;;5067828;28;20081;-66
2023/04/13 10:33:08;;;;;;;9.07;2.00;;;11.20;99.90;;;;;;5054813;28;20048;-65
2023/04/13 10:35:35;;;;;;;8.48;1.88;;;11.30;99.90;;;;;;5063324;28;20467;-65
2023/04/13 10:38:02;;;;;;;10.98;2.20;;;11.20;99.90;;;;;;5069388;28;20060;-65
2023/04/13 10:40:27;;;;;;;11.10;2.42;;;11.30;99.90;;;;;;5061370;28;20143;-65
2023/04/13 10:42:53;;;;;;;11.32;2.58;;;11.50;99.90;;;;;;5061610;28;20531;-67
2023/04/13 10:45:24;;;;;;;11.48;1.80;;;11.70;99.90;;;;;;5068741;28;20063;-64
2023/04/13 10:47:51;;;;;;;8.80;2.33;;;11.70;99.90;;;;;;5068290;28;20040;-65
2023/04/13 10:50:22;;;;;;;11.95;2.05;;;11.70;99.90;;;;;;5062987;28;20401;-65
2023/04/13 10:53:04;;;;;;;12.15;2.50;;;11.80;99.90;;;;;;5069814;28;20052;-65
2023/04/13 10:55:33;;;;;;;9.38;1.95;;;11.80;99.90;;;;;;5054942;28;20066;-65
2023/04/13 10:58:01;;;;;;;15.38;2.42;;;11.80;99.90;;;;;;5062464;28;20475;-64
2023/04/13 11:00:29;;;;;;;12.73;2.63;;;11.80;99.90;;;;;;5059514;28;20091;-64
2023/04/13 11:02:58;;;;;;;8.32;1.98;;;11.80;99.90;;;;;;5066705;28;20545;-65
2023/04/13 11:05:28;;;;;;;10.98;2.20;;;11.70;99.90;;;;;;5067926;28;20044;-65
2023/04/13 11:07:55;;;;;;;8.70;1.95;;;11.70;99.90;;;;;;5059270;28;20447;-66
2023/04/13 11:10:27;;;;;;;9.50;1.90;;;11.80;99.90;;;;;;5067940;28;20396;-65
2023/04/13 11:12:55;;;;;;;12.27;1.80;;;11.70;99.90;;;;;;5063299;28;20116;-65
2023/04/13 11:15:26;;;;;;;9.98;1.83;;;11.70;99.90;;;;;;5070341;28;20479;-65
2023/04/13 11:17:57;;;;;;;9.30;2.00;;;11.70;99.90;;;;;;5067253;28;20112;-66
2023/04/13 11:20:49;;;;;;;10.27;1.92;;;11.80;99.90;;;;;;5065540;28;20098;-65
2023/04/13 11:23:17;;;;;;;9.95;2.08;;;11.80;99.90;;;;;;5067322;28;20052;-65
2023/04/13 11:25:56;;;;;;;7.90;1.85;;;11.80;99.90;;;;;;5067192;28;20079;-65
2023/04/13 11:28:23;;;;;;;7.20;1.70;;;11.90;99.90;;;;;;5067159;28;20040;-65
2023/04/13 11:30:55;;;;;;;6.20;1.50;;;12.00;99.90;;;;;;5058086;28;20037;-65
2023/04/13 11:33:25;;;;;;;8.48;1.88;;;12.10;99.90;;;;;;5046718;28;20044;-65
2023/04/13 11:35:53;;;;;;;7.55;1.52;;;12.20;99.90;;;;;;5047941;28;20127;-65
2023/04/13 11:38:19;;;;;;;6.32;1.70;;;11.90;99.90;;;;;;5048870;28;20476;-65
2023/04/13 11:40:46;;;;;;;12.43;1.70;;;11.70;99.90;;;;;;5054275;28;20090;-65
2023/04/13 11:43:13;;;;;;;6.50;1.75;;;11.60;99.90;;;;;;5049227;28;20049;-65
2023/04/13 11:45:40;;;;;;;12.52;2.83;;;11.60;99.90;;;;;;5050515;28;20060;-65
2023/04/13 11:48:07;;;;;;;8.15;2.63;;;11.80;99.90;;;;;;5049358;28;20052;-65
2023/04/13 11:50:33;;;;;;;11.10;2.00;;;11.90;99.90;;;;;;5050380;28;20400;-65
2023/04/13 11:52:58;;;;;;;8.63;2.15;;;12.00;99.90;;;;;;5050563;28;20110;-65
2023/04/13 11:55:25;;;;;;;8.73;1.67;;;11.90;99.90;;;;;;5062872;28;20086;-65
2023/04/13 11:57:52;;;;;;;7.25;1.92;;;12.00;99.90;;;;;;5068902;28;20401;-65
2023/04/13 12:00:22;;;;;;;9.63;1.58;;;12.00;99.90;;;;;;5067965;28;20071;-65
2023/04/13 12:02:50;;;;;;;8.40;1.60;;;11.80;99.90;;;;;;5064175;28;20058;-65
2023/04/13 12:05:24;;;;;;;5.88;1.70;;;11.90;99.90;;;;;;5062144;28;20511;-65
2023/04/13 12:07:54;;;;;;;12.77;2.15;;;12.00;99.90;;;;;;5062427;28;20040;-65
2023/04/13 12:10:28;;;;;;;10.18;1.65;;;12.20;99.90;;;;;;5050907;28;20123;-65
2023/04/13 12:12:59;;;;;;;16.48;2.40;;;12.30;99.90;;;;;;5067915;28;20119;-65
2023/04/13 12:15:27;;;;;;;10.05;2.17;;;12.40;99.90;;;;;;5069635;28;20037;-65
2023/04/13 12:17:54;;;;;;;12.00;2.15;;;12.50;99.90;;;;;;5060262;28;20037;-65
2023/04/13 12:20:20;;;;;;;12.75;1.83;;;12.30;99.90;;;;;;5064239;28;20492;-65
2023/04/13 12:22:45;;;;;;;9.10;1.90;;;12.10;99.90;;;;;;5065784;28;20070;-65
2023/04/13 12:25:16;;;;;;;9.98;1.88;;;12.20;99.90;;;;;;5067301;28;20103;-65
2023/04/13 12:27:42;;;;;;;10.48;2.15;;;12.30;99.90;;;;;;5063816;28;20059;-65
2023/04/13 12:30:13;;;;;;;10.98;2.03;;;12.40;99.90;;;;;;5068479;28;20041;-65
2023/04/13 12:32:44;;;;;;;9.95;1.70;;;12.50;99.90;;;;;;5062460;28;20037;-64
2023/04/13 12:35:10;;;;;;;10.75;2.17;;;12.40;99.90;;;;;;5048929;28;20067;-65
2023/04/13 12:37:42;;;;;;;7.90;1.98;;;12.30;99.90;;;;;;5062916;28;20040;-66
2023/04/13 12:40:14;;;;;;;7.85;1.50;;;12.30;99.90;;;;;;5068950;28;20047;-65
2023/04/13 12:42:44;;;;;;;8.93;1.73;;;12.40;99.90;;;;;;5065300;28;20059;-65
2023/04/13 12:45:10;;;;;;;8.85;1.48;;;12.50;99.90;;;;;;5061964;28;20052;-65
2023/04/13 12:47:36;;;;;;;10.07;2.10;;;12.60;99.90;;;;;;5058491;28;20040;-65
2023/04/13 12:50:06;;;;;;;10.30;2.08;;;12.60;99.90;;;;;;5067029;28;20044;-65
2023/04/13 12:52:33;;;;;;;6.60;1.48;;;12.60;99.90;;;;;;5067717;28;20071;-65
2023/04/13 12:54:59;;;;;;;8.82;1.85;;;12.70;99.90;;;;;;5064765;28;20066;-65
2023/04/13 12:57:26;;;;;;;9.90;1.83;;;12.80;99.90;;;;;;5065261;28;20172;-65